Terminal Aerodrome Forecast
Issued by NWS

Home | Current Version | Previous Version | Text Only | Print | Product List | Glossary On
Versions: 1 2 3 4 5 6 7 8 9 10 11 12 13 14 15 16 17 18 19 20 21 22 23 24
000
FTPA31 PHFO 092344
TAFHNY
TAF
PHNY 092344Z 1000/1024 VRB03KT P6SM -SHRA SCT007 BKN025 OVC035
      TEMPO 1001/1005 4SM SHRA BR BKN012=

USA.gov is the U.S. government's official web portal to all federal, state and local government web resources and services.